createdAt,value
2022-11-26T00:04:46.681Z,14.10
2022-11-26T00:09:45.128Z,13.80
2022-11-26T00:14:43.216Z,14.48
2022-11-26T00:19:48.855Z,14.30
2022-11-26T00:24:57.134Z,13.57
2022-11-26T00:29:56.274Z,14.20
2022-11-26T00:34:55.271Z,13.20
2022-11-26T00:39:54.843Z,14.13
2022-11-26T00:49:53.511Z,13.90
2022-11-26T00:54:54.307Z,13.07
2022-11-26T01:00:00.001Z,13.70
2022-11-26T01:05:00.281Z,15.43
2022-11-26T01:09:58.387Z,14.30
2022-11-26T01:15:05.972Z,14.07
2022-11-26T01:20:25.447Z,13.77
2022-11-26T01:25:25.641Z,14.80
2022-11-26T01:30:30.857Z,14.02
2022-11-26T01:35:38.401Z,12.73
2022-11-26T01:40:42.501Z,13.43
2022-11-26T01:45:42.113Z,13.43
2022-11-26T01:50:53.090Z,14.13
2022-11-26T01:55:56.066Z,11.52
2022-11-26T02:01:03.305Z,13.02
2022-11-26T02:06:13.396Z,12.15
2022-11-26T02:11:20.247Z,13.75
2022-11-26T02:16:50.712Z,12.63
2022-11-26T02:22:02.384Z,12.23
2022-11-26T02:27:21.604Z,11.60
2022-11-26T02:32:48.502Z,12.18
2022-11-26T02:37:58.346Z,12.38
2022-11-26T02:43:00.890Z,12.32
2022-11-26T02:48:14.831Z,13.02
2022-11-26T02:53:17.494Z,12.02
2022-11-26T02:58:21.116Z,11.70
2022-11-26T03:03:34.005Z,12.50
2022-11-26T03:08:43.021Z,12.48
2022-11-26T03:13:43.940Z,12.38
2022-11-26T03:18:42.965Z,13.25
2022-11-26T03:23:44.106Z,13.18
2022-11-26T03:28:44.910Z,13.07
2022-11-26T03:33:52.043Z,12.32
2022-11-26T03:38:59.248Z,12.13
2022-11-26T03:44:06.309Z,13.85
2022-11-26T03:49:13.380Z,12.90
2022-11-26T03:54:12.925Z,13.77
2022-11-26T03:59:20.014Z,13.25
2022-11-26T04:04:19.500Z,11.77
2022-11-26T04:09:26.599Z,12.38
2022-11-26T04:14:31.665Z,12.13
2022-11-26T04:19:32.908Z,13.38
2022-11-26T04:24:37.150Z,13.93
2022-11-26T04:29:38.366Z,15.00
2022-11-26T04:34:45.424Z,13.27
2022-11-26T04:39:49.473Z,13.93
2022-11-26T04:44:56.630Z,13.98
2022-11-26T04:50:01.396Z,14.27
2022-11-26T04:55:08.924Z,13.95
2022-11-26T05:00:10.132Z,13.90
2022-11-26T05:05:14.135Z,13.80
2022-11-26T05:10:21.227Z,13.25
2022-11-26T05:15:20.896Z,13.33
2022-11-26T05:20:25.073Z,14.05
2022-11-26T05:25:27.478Z,13.60
2022-11-26T05:30:34.959Z,14.75
2022-11-26T05:35:40.712Z,14.15
2022-11-26T05:40:38.291Z,12.43
2022-11-26T05:45:39.545Z,13.43
2022-11-26T05:50:43.613Z,12.63
2022-11-26T05:55:43.176Z,13.07
2022-11-26T06:00:43.166Z,11.88
2022-11-26T06:05:40.883Z,13.40
2022-11-26T06:10:42.990Z,13.25
2022-11-26T06:15:41.591Z,13.75
2022-11-26T06:20:41.945Z,13.15
2022-11-26T06:25:41.223Z,13.52
2022-11-26T06:30:44.123Z,12.85
2022-11-26T06:35:44.885Z,12.48
2022-11-26T06:40:46.648Z,13.27
2022-11-26T06:45:54.480Z,12.25
2022-11-26T06:51:08.622Z,12.30
2022-11-26T06:56:18.100Z,12.18
2022-11-26T07:01:20.794Z,12.25
2022-11-26T07:06:27.183Z,13.68
2022-11-26T07:11:35.678Z,14.02
2022-11-26T07:16:35.764Z,13.85
2022-11-26T07:21:37.191Z,14.38
2022-11-26T07:26:37.630Z,13.10
2022-11-26T07:31:36.470Z,13.07
2022-11-26T07:36:34.403Z,13.27
2022-11-26T07:41:41.465Z,12.35
2022-11-26T07:46:39.509Z,12.30
2022-11-26T07:51:37.318Z,12.18
2022-11-26T07:56:35.725Z,13.35
2022-11-26T08:01:33.837Z,14.13
2022-11-26T08:06:32.356Z,14.98
2022-11-26T08:11:32.667Z,14.98
2022-11-26T08:16:31.036Z,13.27
2022-11-26T08:21:29.145Z,13.63
2022-11-26T08:26:35.895Z,12.35
2022-11-26T08:31:38.852Z,13.05
2022-11-26T08:36:39.140Z,12.50
2022-11-26T08:41:38.033Z,14.60
2022-11-26T08:46:41.039Z,14.07
2022-11-26T08:51:39.052Z,14.10
2022-11-26T08:56:38.682Z,13.02
2022-11-26T09:01:46.383Z,12.75
2022-11-26T09:06:44.896Z,10.45
2022-11-26T09:12:02.492Z,12.30
2022-11-26T09:17:00.268Z,12.55
2022-11-26T09:21:59.180Z,11.70
2022-11-26T09:26:57.018Z,12.77
2022-11-26T09:32:21.852Z,12.88
2022-11-26T09:37:12.394Z,12.63
2022-11-26T09:42:25.788Z,11.27
2022-11-26T09:47:28.683Z,10.43
2022-11-26T09:52:34.074Z,10.63
2022-11-26T09:57:51.246Z,10.48
2022-11-26T10:02:48.789Z,9.52
2022-11-26T10:08:19.598Z,10.55
2022-11-26T10:13:41.794Z,11.23
2022-11-26T10:18:59.013Z,12.00
2022-11-26T10:24:31.059Z,10.07
2022-11-26T10:29:38.456Z,10.70
2022-11-26T10:34:43.288Z,9.50
2022-11-26T10:39:42.214Z,9.93
2022-11-26T10:44:42.564Z,10.23
2022-11-26T10:49:40.694Z,9.55
2022-11-26T10:54:39.543Z,10.85
2022-11-26T10:59:53.433Z,10.03
2022-11-26T11:04:55.120Z,9.77
2022-11-26T11:10:13.473Z,9.88
2022-11-26T11:15:20.923Z,8.93
2022-11-26T11:20:19.094Z,9.85
2022-11-26T11:25:35.595Z,9.52
2022-11-26T11:30:38.712Z,9.63
2022-11-26T11:35:38.114Z,9.18
2022-11-26T11:40:42.366Z,9.15
2022-11-26T11:45:44.092Z,9.55
2022-11-26T11:50:51.798Z,9.30
2022-11-26T11:56:02.730Z,10.07
2022-11-26T12:01:10.117Z,9.77
2022-11-26T12:06:58.010Z,10.25
2022-11-26T12:12:00.534Z,8.55
2022-11-26T12:17:17.768Z,8.75
2022-11-26T12:22:25.978Z,9.40
2022-11-26T12:27:29.567Z,9.02
2022-11-26T12:32:37.879Z,8.98
2022-11-26T12:37:43.050Z,9.43
2022-11-26T12:42:57.460Z,10.27
2022-11-26T12:48:04.148Z,10.27
2022-11-26T12:53:39.079Z,10.73
2022-11-26T12:58:54.154Z,9.55
2022-11-26T13:04:08.424Z,9.00
2022-11-26T13:09:32.650Z,10.25
2022-11-26T13:14:37.588Z,10.18
2022-11-26T13:20:11.411Z,8.55
2022-11-26T13:25:29.176Z,9.00
2022-11-26T13:30:32.269Z,9.93
2022-11-26T13:35:57.331Z,8.70
2022-11-26T13:41:17.694Z,9.60
2022-11-26T13:46:21.922Z,9.70
2022-11-26T13:51:45.540Z,8.77
2022-11-26T13:56:45.446Z,9.57
2022-11-26T14:01:47.304Z,8.38
2022-11-26T14:07:04.111Z,8.73
2022-11-26T14:12:02.119Z,8.13
2022-11-26T14:17:01.048Z,8.25
2022-11-26T14:22:03.789Z,6.80
2022-11-26T14:27:10.891Z,7.38
2022-11-26T14:32:20.004Z,9.32
2022-11-26T14:37:21.880Z,7.65
2022-11-26T14:42:20.130Z,8.13
2022-11-26T14:47:21.027Z,7.97
2022-11-26T14:52:39.564Z,7.82
2022-11-26T14:57:45.399Z,7.97
2022-11-26T15:02:48.165Z,8.95
2022-11-26T15:07:47.042Z,8.98
2022-11-26T15:12:44.714Z,8.95
2022-11-26T15:17:50.629Z,8.35
2022-11-26T15:22:57.168Z,8.82
2022-11-26T15:28:02.027Z,9.00
2022-11-26T15:33:20.172Z,9.38
2022-11-26T15:38:20.779Z,9.77
2022-11-26T15:43:46.791Z,9.52
2022-11-26T15:48:53.732Z,11.00
2022-11-26T15:53:52.387Z,10.35
2022-11-26T15:58:56.896Z,9.98
2022-11-26T16:03:55.858Z,10.48
2022-11-26T16:09:06.467Z,12.85
2022-11-26T16:19:24.518Z,9.40
2022-11-26T16:24:28.889Z,8.70
2022-11-26T16:29:27.572Z,8.52
2022-11-26T16:34:28.409Z,9.13
2022-11-26T16:39:30.167Z,9.23
2022-11-26T16:44:27.837Z,9.88
2022-11-26T16:49:26.722Z,9.85
2022-11-26T16:54:24.273Z,10.68
2022-11-26T16:59:27.076Z,11.23
2022-11-26T17:04:24.540Z,12.02
2022-11-26T17:09:22.138Z,10.98
2022-11-26T17:14:19.422Z,12.13
2022-11-26T17:19:26.520Z,11.90
2022-11-26T17:24:28.327Z,12.23
2022-11-26T17:29:42.737Z,11.25
2022-11-26T17:34:40.992Z,11.07
2022-11-26T17:39:38.437Z,11.88
2022-11-26T17:44:36.160Z,12.98
2022-11-26T17:49:43.329Z,12.82
2022-11-26T17:54:40.920Z,14.23
2022-11-26T17:59:39.078Z,13.45
2022-11-26T18:04:37.325Z,14.25
2022-11-26T18:09:44.906Z,14.13
2022-11-26T18:14:42.577Z,14.73
2022-11-26T18:19:43.573Z,14.73
2022-11-26T18:24:43.219Z,15.15
2022-11-26T18:29:40.893Z,14.13
2022-11-26T18:34:39.494Z,15.20
2022-11-26T18:39:38.232Z,12.35
2022-11-26T18:44:45.461Z,14.20
2022-11-26T18:49:47.386Z,14.02
2022-11-26T18:54:45.389Z,11.55
2022-11-26T18:59:43.532Z,12.05
2022-11-26T19:04:43.043Z,11.80
2022-11-26T19:09:40.698Z,11.15
2022-11-26T19:14:38.587Z,12.48
2022-11-26T19:19:45.684Z,10.90
2022-11-26T19:24:52.755Z,11.98
2022-11-26T19:29:50.224Z,11.93
2022-11-26T19:34:49.335Z,11.73
2022-11-26T19:39:50.230Z,12.23
2022-11-26T19:44:47.655Z,12.68
2022-11-26T19:49:54.753Z,13.05
2022-11-26T19:54:52.097Z,11.82
2022-11-26T19:59:59.207Z,11.75
2022-11-26T20:05:06.503Z,11.57
2022-11-26T20:10:05.064Z,11.00
2022-11-26T20:15:02.289Z,12.23
2022-11-26T20:19:59.808Z,11.93
2022-11-26T20:24:56.956Z,12.07
2022-11-26T20:29:54.904Z,12.93
2022-11-26T20:34:52.534Z,11.85
2022-11-26T20:39:50.051Z,12.82
2022-11-26T20:44:47.516Z,13.07
2022-11-26T20:49:45.908Z,12.02
2022-11-26T20:54:43.456Z,11.98
2022-11-26T20:59:41.368Z,13.02
2022-11-26T21:04:39.163Z,13.13
2022-11-26T21:09:36.562Z,13.25
2022-11-26T21:14:34.918Z,13.25
2022-11-26T21:19:32.270Z,13.07
2022-11-26T21:24:29.514Z,12.80
2022-11-26T21:29:28.087Z,11.35
2022-11-26T21:34:25.543Z,12.05
2022-11-26T21:39:22.929Z,12.52
2022-11-26T21:44:21.240Z,13.10
2022-11-26T21:49:18.608Z,12.27
2022-11-26T21:54:16.591Z,12.93
2022-11-26T21:59:14.152Z,13.43
2022-11-26T22:04:14.890Z,12.82
2022-11-26T22:09:13.192Z,12.80
2022-11-26T22:14:15.083Z,13.40
2022-11-26T22:19:12.409Z,14.13
2022-11-26T22:24:14.279Z,13.52
2022-11-26T22:29:16.619Z,14.70
2022-11-26T22:34:17.246Z,14.75
2022-11-26T22:44:13.993Z,14.45
2022-11-26T22:49:16.221Z,13.73
2022-11-26T22:54:16.395Z,15.43
2022-11-26T22:59:14.908Z,14.13
2022-11-26T23:04:12.295Z,14.82
2022-11-26T23:09:11.160Z,14.98
2022-11-26T23:14:09.774Z,14.73
2022-11-26T23:19:08.245Z,15.07
2022-11-26T23:24:06.713Z,15.70
2022-11-26T23:29:05.556Z,15.45
2022-11-26T23:34:03.597Z,12.80
2022-11-26T23:39:02.766Z,14.30
2022-11-26T23:44:00.591Z,14.73
2022-11-26T23:48:58.811Z,13.75
2022-11-26T23:53:57.185Z,15.30
2022-11-26T23:58:57.515Z,14.73
